Accueil
METAR-TAF:

METAR-TAF

Aéroports :

Kingston, Jamaïque

Aéroport international Norman-Manley de Kingston

latitude: 17-56N, longitude: 076-47W, altitude: 3 m

Observation

Le bulletin a été fait il y a 37 minutes, à 18:00 UTC
Vent 15 kt de sud-est
Température 29°C
Humidité 66%
Pression 1018 hPa
Visibilité 10 km ou plus
Quelques nuages à une hauteur de 2200 ft

METAR: MKJP 231800Z 14015KT 9999 FEW022 29/22 Q1018

Heure: 13:37 (18:37 UTC)

Prévision

Le bulletin a été fait il y a 1 heure et 22 minutes, à 17:15 UTC
Prévision valable du 23 à 18 UTC au 24 à 18 UTC
Vent 20 kt de sud-est
Visibilité 10 km ou plus
Quelques nuages à une hauteur de 2000 ft
Evoluant progressivement
du 24 à 02 UTC au 24 à 04 UTC
Vent 5 kt de nord
Evoluant progressivement
du 24 à 14 UTC au 24 à 16 UTC
Vent 20 kt de sud-est

TAF: MKJP 231715Z 2318/2418 14020KT 9999 FEW020 BECMG 2402/2404 36005KT BECMG 2414/2416 14020KT

Observations et prévisions météorologiques de plus de 4000 aéroports (messages METAR et TAF).

Les stations disponibles sont représentées par des disques jaunes et rouges sur la carte.

Passer la souris dessus pour voir le nom de la station.

Cliquer dessus pour voir les observations et prévisions météorologiques.

Pour changer de carte: cliquez sur les boutons verts avec une croix noire pour zoomer, sur le bouton vert avec un tiret pour effectuer un zoom arrière, ou sur les flèches vertes pour les cartes adjacentes.


METAR-TAF: